sensor_id;sensor_type;location;lat;lon;timestamp;P1;durP1;ratioP1;P2;durP2;ratioP2
39738;SDS011;25422;48.286;8.484;2024-03-02T00:00:03;32.15;;;17.63;;
39738;SDS011;25422;48.286;8.484;2024-03-02T00:02:39;30.65;;;18.00;;
39738;SDS011;25422;48.286;8.484;2024-03-02T00:05:12;29.15;;;18.38;;
39738;SDS011;25422;48.286;8.484;2024-03-02T00:07:43;30.38;;;18.00;;
39738;SDS011;25422;48.286;8.484;2024-03-02T00:10:10;27.80;;;16.58;;
39738;SDS011;25422;48.286;8.484;2024-03-02T00:12:39;29.33;;;17.02;;
39738;SDS011;25422;48.286;8.484;2024-03-02T00:15:05;27.88;;;16.73;;
39738;SDS011;25422;48.286;8.484;2024-03-02T00:17:45;29.40;;;16.88;;
39738;SDS011;25422;48.286;8.484;2024-03-02T00:20:11;28.17;;;16.58;;
39738;SDS011;25422;48.286;8.484;2024-03-02T00:22:43;26.83;;;16.05;;
39738;SDS011;25422;48.286;8.484;2024-03-02T00:25:08;27.20;;;15.43;;
39738;SDS011;25422;48.286;8.484;2024-03-02T00:27:35;26.80;;;16.17;;
39738;SDS011;25422;48.286;8.484;2024-03-02T00:30:01;29.63;;;15.27;;
39738;SDS011;25422;48.286;8.484;2024-03-02T00:32:51;27.23;;;14.90;;
39738;SDS011;25422;48.286;8.484;2024-03-02T00:35:18;26.42;;;15.32;;
39738;SDS011;25422;48.286;8.484;2024-03-02T00:37:46;27.77;;;16.10;;
39738;SDS011;25422;48.286;8.484;2024-03-02T00:40:11;26.17;;;14.88;;
39738;SDS011;25422;48.286;8.484;2024-03-02T00:42:38;25.00;;;14.20;;
39738;SDS011;25422;48.286;8.484;2024-03-02T00:45:07;27.88;;;15.25;;
39738;SDS011;25422;48.286;8.484;2024-03-02T00:47:37;28.65;;;15.88;;
39738;SDS011;25422;48.286;8.484;2024-03-02T00:50:05;29.70;;;16.58;;
39738;SDS011;25422;48.286;8.484;2024-03-02T00:52:31;28.92;;;16.48;;
39738;SDS011;25422;48.286;8.484;2024-03-02T00:54:58;29.42;;;16.63;;
39738;SDS011;25422;48.286;8.484;2024-03-02T00:57:24;30.85;;;17.42;;
39738;SDS011;25422;48.286;8.484;2024-03-02T00:59:51;30.67;;;17.30;;
39738;SDS011;25422;48.286;8.484;2024-03-02T01:02:17;32.13;;;18.77;;
39738;SDS011;25422;48.286;8.484;2024-03-02T01:04:42;35.55;;;19.05;;
39738;SDS011;25422;48.286;8.484;2024-03-02T01:07:07;33.40;;;17.77;;
39738;SDS011;25422;48.286;8.484;2024-03-02T01:09:33;36.53;;;19.50;;
39738;SDS011;25422;48.286;8.484;2024-03-02T01:11:58;35.25;;;19.08;;
39738;SDS011;25422;48.286;8.484;2024-03-02T01:14:24;32.05;;;17.17;;
39738;SDS011;25422;48.286;8.484;2024-03-02T01:16:49;32.38;;;17.20;;
39738;SDS011;25422;48.286;8.484;2024-03-02T01:19:14;32.55;;;17.70;;
39738;SDS011;25422;48.286;8.484;2024-03-02T01:21:40;34.63;;;18.90;;
39738;SDS011;25422;48.286;8.484;2024-03-02T01:24:06;32.65;;;19.23;;
39738;SDS011;25422;48.286;8.484;2024-03-02T01:26:31;33.63;;;18.38;;
39738;SDS011;25422;48.286;8.484;2024-03-02T01:28:56;37.45;;;18.58;;
39738;SDS011;25422;48.286;8.484;2024-03-02T01:31:22;32.58;;;17.70;;
39738;SDS011;25422;48.286;8.484;2024-03-02T01:33:47;29.80;;;16.15;;
39738;SDS011;25422;48.286;8.484;2024-03-02T01:36:13;28.85;;;17.05;;
39738;SDS011;25422;48.286;8.484;2024-03-02T01:38:38;31.63;;;16.75;;
39738;SDS011;25422;48.286;8.484;2024-03-02T01:41:04;29.77;;;16.67;;
39738;SDS011;25422;48.286;8.484;2024-03-02T01:43:29;32.38;;;17.08;;
39738;SDS011;25422;48.286;8.484;2024-03-02T01:45:54;30.67;;;17.02;;
39738;SDS011;25422;48.286;8.484;2024-03-02T01:48:21;34.75;;;17.58;;
39738;SDS011;25422;48.286;8.484;2024-03-02T01:50:47;32.65;;;17.67;;
39738;SDS011;25422;48.286;8.484;2024-03-02T01:53:12;34.17;;;18.27;;
39738;SDS011;25422;48.286;8.484;2024-03-02T01:55:38;35.65;;;17.85;;
39738;SDS011;25422;48.286;8.484;2024-03-02T01:58:03;31.98;;;17.55;;
39738;SDS011;25422;48.286;8.484;2024-03-02T02:00:29;35.67;;;18.10;;
39738;SDS011;25422;48.286;8.484;2024-03-02T02:02:55;36.15;;;18.98;;
39738;SDS011;25422;48.286;8.484;2024-03-02T02:05:20;40.17;;;20.08;;
39738;SDS011;25422;48.286;8.484;2024-03-02T02:07:46;37.58;;;19.48;;
39738;SDS011;25422;48.286;8.484;2024-03-02T02:10:12;38.72;;;19.63;;
39738;SDS011;25422;48.286;8.484;2024-03-02T02:12:38;39.92;;;19.95;;
39738;SDS011;25422;48.286;8.484;2024-03-02T02:15:04;38.30;;;19.80;;
39738;SDS011;25422;48.286;8.484;2024-03-02T02:17:56;38.50;;;19.70;;
39738;SDS011;25422;48.286;8.484;2024-03-02T02:20:22;34.00;;;18.23;;
39738;SDS011;25422;48.286;8.484;2024-03-02T02:22:55;36.67;;;18.67;;
39738;SDS011;25422;48.286;8.484;2024-03-02T02:25:21;35.85;;;18.60;;
39738;SDS011;25422;48.286;8.484;2024-03-02T02:27:46;33.28;;;17.95;;
39738;SDS011;25422;48.286;8.484;2024-03-02T02:30:12;33.10;;;17.88;;
39738;SDS011;25422;48.286;8.484;2024-03-02T02:32:37;35.70;;;18.13;;
39738;SDS011;25422;48.286;8.484;2024-03-02T02:35:03;33.28;;;18.13;;
39738;SDS011;25422;48.286;8.484;2024-03-02T02:37:29;35.63;;;18.15;;
39738;SDS011;25422;48.286;8.484;2024-03-02T02:39:55;36.70;;;17.98;;
39738;SDS011;25422;48.286;8.484;2024-03-02T02:42:20;35.15;;;17.95;;
39738;SDS011;25422;48.286;8.484;2024-03-02T02:44:46;33.50;;;18.08;;
39738;SDS011;25422;48.286;8.484;2024-03-02T02:47:11;35.17;;;18.88;;
39738;SDS011;25422;48.286;8.484;2024-03-02T02:49:36;39.53;;;19.80;;
39738;SDS011;25422;48.286;8.484;2024-03-02T02:52:02;39.22;;;17.98;;
39738;SDS011;25422;48.286;8.484;2024-03-02T02:54:28;34.63;;;18.27;;
39738;SDS011;25422;48.286;8.484;2024-03-02T02:56:53;35.15;;;18.20;;
39738;SDS011;25422;48.286;8.484;2024-03-02T02:59:18;36.83;;;17.67;;
39738;SDS011;25422;48.286;8.484;2024-03-02T03:01:44;37.00;;;17.83;;
39738;SDS011;25422;48.286;8.484;2024-03-02T03:04:09;34.47;;;18.15;;
39738;SDS011;25422;48.286;8.484;2024-03-02T03:06:35;31.60;;;17.38;;
39738;SDS011;25422;48.286;8.484;2024-03-02T03:09:00;32.95;;;17.45;;
39738;SDS011;25422;48.286;8.484;2024-03-02T03:11:25;34.33;;;17.15;;
39738;SDS011;25422;48.286;8.484;2024-03-02T03:13:51;32.47;;;16.75;;
39738;SDS011;25422;48.286;8.484;2024-03-02T03:16:18;32.25;;;17.40;;
39738;SDS011;25422;48.286;8.484;2024-03-02T03:18:43;32.03;;;17.35;;
39738;SDS011;25422;48.286;8.484;2024-03-02T03:21:08;31.75;;;16.67;;
39738;SDS011;25422;48.286;8.484;2024-03-02T03:23:34;36.67;;;17.67;;
39738;SDS011;25422;48.286;8.484;2024-03-02T03:25:59;37.17;;;17.33;;
39738;SDS011;25422;48.286;8.484;2024-03-02T03:28:24;37.78;;;18.52;;
39738;SDS011;25422;48.286;8.484;2024-03-02T03:30:50;40.67;;;19.83;;
39738;SDS011;25422;48.286;8.484;2024-03-02T03:33:15;39.72;;;19.63;;
39738;SDS011;25422;48.286;8.484;2024-03-02T03:35:41;44.17;;;20.52;;
39738;SDS011;25422;48.286;8.484;2024-03-02T03:38:06;44.40;;;21.45;;
39738;SDS011;25422;48.286;8.484;2024-03-02T03:40:31;42.75;;;20.27;;
39738;SDS011;25422;48.286;8.484;2024-03-02T03:42:57;45.90;;;20.38;;
39738;SDS011;25422;48.286;8.484;2024-03-02T03:45:23;42.28;;;20.52;;
39738;SDS011;25422;48.286;8.484;2024-03-02T03:47:51;44.13;;;20.30;;
39738;SDS011;25422;48.286;8.484;2024-03-02T03:50:16;46.47;;;21.25;;
39738;SDS011;25422;48.286;8.484;2024-03-02T03:52:41;41.15;;;20.83;;
39738;SDS011;25422;48.286;8.484;2024-03-02T03:55:07;38.33;;;19.30;;
39738;SDS011;25422;48.286;8.484;2024-03-02T03:57:33;40.28;;;20.65;;
39738;SDS011;25422;48.286;8.484;2024-03-02T03:59:58;38.65;;;19.90;;
39738;SDS011;25422;48.286;8.484;2024-03-02T04:02:25;40.13;;;19.73;;
39738;SDS011;25422;48.286;8.484;2024-03-02T04:04:50;42.75;;;20.73;;
39738;SDS011;25422;48.286;8.484;2024-03-02T04:07:17;43.15;;;20.08;;
39738;SDS011;25422;48.286;8.484;2024-03-02T04:09:43;40.95;;;20.13;;
39738;SDS011;25422;48.286;8.484;2024-03-02T04:12:08;46.08;;;21.50;;
39738;SDS011;25422;48.286;8.484;2024-03-02T04:14:34;41.95;;;20.45;;
39738;SDS011;25422;48.286;8.484;2024-03-02T04:16:59;39.30;;;20.25;;
39738;SDS011;25422;48.286;8.484;2024-03-02T04:19:25;42.03;;;20.75;;
39738;SDS011;25422;48.286;8.484;2024-03-02T04:21:50;42.20;;;20.33;;
39738;SDS011;25422;48.286;8.484;2024-03-02T04:24:16;42.55;;;21.38;;
39738;SDS011;25422;48.286;8.484;2024-03-02T04:26:42;42.45;;;20.63;;
39738;SDS011;25422;48.286;8.484;2024-03-02T04:29:07;38.38;;;19.23;;
39738;SDS011;25422;48.286;8.484;2024-03-02T04:31:32;44.83;;;21.30;;
39738;SDS011;25422;48.286;8.484;2024-03-02T04:33:58;40.00;;;20.00;;
39738;SDS011;25422;48.286;8.484;2024-03-02T04:36:23;39.58;;;20.02;;
39738;SDS011;25422;48.286;8.484;2024-03-02T04:38:49;41.10;;;19.90;;
39738;SDS011;25422;48.286;8.484;2024-03-02T04:41:14;42.50;;;20.10;;
39738;SDS011;25422;48.286;8.484;2024-03-02T04:43:40;42.10;;;21.20;;
39738;SDS011;25422;48.286;8.484;2024-03-02T04:46:06;42.35;;;21.30;;
39738;SDS011;25422;48.286;8.484;2024-03-02T04:48:32;41.63;;;20.80;;
39738;SDS011;25422;48.286;8.484;2024-03-02T04:50:58;44.05;;;20.95;;
39738;SDS011;25422;48.286;8.484;2024-03-02T04:53:23;42.35;;;20.98;;
39738;SDS011;25422;48.286;8.484;2024-03-02T04:55:49;46.80;;;22.90;;
39738;SDS011;25422;48.286;8.484;2024-03-02T04:58:35;45.67;;;21.90;;
39738;SDS011;25422;48.286;8.484;2024-03-02T05:01:00;44.47;;;20.98;;
39738;SDS011;25422;48.286;8.484;2024-03-02T05:03:26;43.38;;;20.15;;
39738;SDS011;25422;48.286;8.484;2024-03-02T05:05:51;43.08;;;21.38;;
39738;SDS011;25422;48.286;8.484;2024-03-02T05:08:16;44.47;;;20.65;;
39738;SDS011;25422;48.286;8.484;2024-03-02T05:10:42;46.20;;;21.63;;
39738;SDS011;25422;48.286;8.484;2024-03-02T05:13:08;44.92;;;21.85;;
39738;SDS011;25422;48.286;8.484;2024-03-02T05:15:34;41.30;;;20.45;;
39738;SDS011;25422;48.286;8.484;2024-03-02T05:17:59;46.65;;;22.40;;
39738;SDS011;25422;48.286;8.484;2024-03-02T05:20:27;46.88;;;21.77;;
39738;SDS011;25422;48.286;8.484;2024-03-02T05:22:53;46.22;;;22.75;;
39738;SDS011;25422;48.286;8.484;2024-03-02T05:25:18;44.35;;;22.35;;
39738;SDS011;25422;48.286;8.484;2024-03-02T05:27:43;45.88;;;21.55;;
39738;SDS011;25422;48.286;8.484;2024-03-02T05:30:09;47.05;;;21.98;;
39738;SDS011;25422;48.286;8.484;2024-03-02T05:32:35;44.75;;;22.10;;
39738;SDS011;25422;48.286;8.484;2024-03-02T05:35:01;48.58;;;22.75;;
39738;SDS011;25422;48.286;8.484;2024-03-02T05:37:26;43.45;;;22.10;;
39738;SDS011;25422;48.286;8.484;2024-03-02T05:39:51;45.22;;;22.23;;
39738;SDS011;25422;48.286;8.484;2024-03-02T05:42:17;44.85;;;22.58;;
39738;SDS011;25422;48.286;8.484;2024-03-02T05:44:42;47.30;;;22.92;;
39738;SDS011;25422;48.286;8.484;2024-03-02T05:47:08;49.10;;;22.67;;
39738;SDS011;25422;48.286;8.484;2024-03-02T05:49:34;49.28;;;22.75;;
39738;SDS011;25422;48.286;8.484;2024-03-02T05:51:59;48.95;;;23.20;;
39738;SDS011;25422;48.286;8.484;2024-03-02T05:54:25;48.00;;;22.42;;
39738;SDS011;25422;48.286;8.484;2024-03-02T05:56:50;49.90;;;23.88;;
39738;SDS011;25422;48.286;8.484;2024-03-02T05:59:16;50.78;;;22.98;;
39738;SDS011;25422;48.286;8.484;2024-03-02T06:01:42;50.90;;;23.48;;
39738;SDS011;25422;48.286;8.484;2024-03-02T06:04:12;53.10;;;24.27;;
39738;SDS011;25422;48.286;8.484;2024-03-02T06:06:38;48.70;;;22.98;;
39738;SDS011;25422;48.286;8.484;2024-03-02T06:09:04;51.55;;;23.58;;
39738;SDS011;25422;48.286;8.484;2024-03-02T06:11:33;54.45;;;25.33;;
39738;SDS011;25422;48.286;8.484;2024-03-02T06:14:01;53.88;;;24.38;;
39738;SDS011;25422;48.286;8.484;2024-03-02T06:16:27;51.97;;;23.05;;
39738;SDS011;25422;48.286;8.484;2024-03-02T06:18:53;47.97;;;23.80;;
39738;SDS011;25422;48.286;8.484;2024-03-02T06:21:19;51.08;;;23.50;;
39738;SDS011;25422;48.286;8.484;2024-03-02T06:23:45;51.70;;;24.70;;
39738;SDS011;25422;48.286;8.484;2024-03-02T06:26:11;53.35;;;24.40;;
39738;SDS011;25422;48.286;8.484;2024-03-02T06:28:37;50.67;;;24.17;;
39738;SDS011;25422;48.286;8.484;2024-03-02T06:31:02;55.28;;;25.88;;
39738;SDS011;25422;48.286;8.484;2024-03-02T06:33:28;59.88;;;25.67;;
39738;SDS011;25422;48.286;8.484;2024-03-02T06:35:53;56.80;;;25.17;;
39738;SDS011;25422;48.286;8.484;2024-03-02T06:38:19;58.83;;;25.63;;
39738;SDS011;25422;48.286;8.484;2024-03-02T06:40:44;56.20;;;25.05;;
39738;SDS011;25422;48.286;8.484;2024-03-02T06:43:10;59.33;;;26.65;;
39738;SDS011;25422;48.286;8.484;2024-03-02T06:45:35;59.13;;;26.67;;
39738;SDS011;25422;48.286;8.484;2024-03-02T06:48:01;61.95;;;27.83;;
39738;SDS011;25422;48.286;8.484;2024-03-02T06:50:26;61.65;;;28.88;;
39738;SDS011;25422;48.286;8.484;2024-03-02T06:52:52;59.92;;;25.98;;
39738;SDS011;25422;48.286;8.484;2024-03-02T06:55:17;64.97;;;26.77;;
39738;SDS011;25422;48.286;8.484;2024-03-02T06:57:43;67.70;;;28.65;;
39738;SDS011;25422;48.286;8.484;2024-03-02T07:00:08;67.60;;;28.80;;
39738;SDS011;25422;48.286;8.484;2024-03-02T07:02:35;66.20;;;29.50;;
39738;SDS011;25422;48.286;8.484;2024-03-02T07:05:01;66.18;;;29.38;;
39738;SDS011;25422;48.286;8.484;2024-03-02T07:07:27;63.40;;;30.10;;
39738;SDS011;25422;48.286;8.484;2024-03-02T07:09:52;53.83;;;28.23;;
39738;SDS011;25422;48.286;8.484;2024-03-02T07:12:18;50.33;;;27.38;;
39738;SDS011;25422;48.286;8.484;2024-03-02T07:14:43;47.70;;;26.33;;
39738;SDS011;25422;48.286;8.484;2024-03-02T07:17:27;41.53;;;23.75;;
39738;SDS011;25422;48.286;8.484;2024-03-02T07:19:53;39.78;;;23.52;;
39738;SDS011;25422;48.286;8.484;2024-03-02T07:22:18;40.10;;;24.15;;
39738;SDS011;25422;48.286;8.484;2024-03-02T07:24:44;40.03;;;23.58;;
39738;SDS011;25422;48.286;8.484;2024-03-02T07:27:11;34.22;;;22.63;;
39738;SDS011;25422;48.286;8.484;2024-03-02T07:29:37;32.78;;;21.27;;
39738;SDS011;25422;48.286;8.484;2024-03-02T07:32:04;32.50;;;21.17;;
39738;SDS011;25422;48.286;8.484;2024-03-02T07:34:29;31.25;;;19.90;;
39738;SDS011;25422;48.286;8.484;2024-03-02T07:36:55;31.73;;;20.08;;
39738;SDS011;25422;48.286;8.484;2024-03-02T07:39:21;29.83;;;20.10;;
39738;SDS011;25422;48.286;8.484;2024-03-02T07:41:46;29.52;;;20.05;;
39738;SDS011;25422;48.286;8.484;2024-03-02T07:44:12;30.10;;;19.00;;
39738;SDS011;25422;48.286;8.484;2024-03-02T07:46:44;28.08;;;18.73;;
39738;SDS011;25422;48.286;8.484;2024-03-02T07:49:16;27.00;;;17.77;;
39738;SDS011;25422;48.286;8.484;2024-03-02T07:51:43;27.48;;;17.92;;
39738;SDS011;25422;48.286;8.484;2024-03-02T07:54:09;26.95;;;18.33;;
39738;SDS011;25422;48.286;8.484;2024-03-02T07:56:34;23.98;;;17.15;;
39738;SDS011;25422;48.286;8.484;2024-03-02T07:59:00;25.50;;;17.40;;
39738;SDS011;25422;48.286;8.484;2024-03-02T08:01:30;24.20;;;17.70;;
39738;SDS011;25422;48.286;8.484;2024-03-02T08:03:59;22.98;;;16.55;;
39738;SDS011;25422;48.286;8.484;2024-03-02T08:06:26;24.35;;;17.13;;
39738;SDS011;25422;48.286;8.484;2024-03-02T08:08:59;23.15;;;16.73;;
39738;SDS011;25422;48.286;8.484;2024-03-02T08:11:26;22.30;;;16.40;;
39738;SDS011;25422;48.286;8.484;2024-03-02T08:13:56;21.45;;;15.52;;
39738;SDS011;25422;48.286;8.484;2024-03-02T08:16:22;21.60;;;15.38;;
39738;SDS011;25422;48.286;8.484;2024-03-02T08:18:48;20.45;;;13.95;;
39738;SDS011;25422;48.286;8.484;2024-03-02T08:21:14;21.88;;;15.27;;
39738;SDS011;25422;48.286;8.484;2024-03-02T08:23:41;18.42;;;14.10;;
39738;SDS011;25422;48.286;8.484;2024-03-02T08:26:08;19.65;;;14.35;;
39738;SDS011;25422;48.286;8.484;2024-03-02T08:28:34;18.60;;;13.95;;
39738;SDS011;25422;48.286;8.484;2024-03-02T08:30:59;19.45;;;13.95;;
39738;SDS011;25422;48.286;8.484;2024-03-02T08:33:25;20.20;;;14.40;;
39738;SDS011;25422;48.286;8.484;2024-03-02T08:35:50;19.85;;;13.52;;
39738;SDS011;25422;48.286;8.484;2024-03-02T08:38:16;20.10;;;15.10;;
39738;SDS011;25422;48.286;8.484;2024-03-02T08:40:41;19.55;;;13.93;;
39738;SDS011;25422;48.286;8.484;2024-03-02T08:43:07;17.98;;;13.02;;
39738;SDS011;25422;48.286;8.484;2024-03-02T08:45:32;18.17;;;13.40;;
39738;SDS011;25422;48.286;8.484;2024-03-02T08:47:59;16.80;;;13.10;;
39738;SDS011;25422;48.286;8.484;2024-03-02T08:50:25;18.27;;;13.55;;
39738;SDS011;25422;48.286;8.484;2024-03-02T08:52:50;20.80;;;13.52;;
39738;SDS011;25422;48.286;8.484;2024-03-02T08:55:16;20.42;;;13.75;;
39738;SDS011;25422;48.286;8.484;2024-03-02T08:57:41;19.60;;;13.40;;
39738;SDS011;25422;48.286;8.484;2024-03-02T09:00:07;17.27;;;13.90;;
39738;SDS011;25422;48.286;8.484;2024-03-02T09:02:33;18.20;;;14.00;;
39738;SDS011;25422;48.286;8.484;2024-03-02T09:04:59;18.38;;;13.68;;
39738;SDS011;25422;48.286;8.484;2024-03-02T09:07:24;18.33;;;12.90;;
39738;SDS011;25422;48.286;8.484;2024-03-02T09:09:50;16.48;;;12.57;;
39738;SDS011;25422;48.286;8.484;2024-03-02T09:12:15;16.67;;;13.57;;
39738;SDS011;25422;48.286;8.484;2024-03-02T09:14:41;17.65;;;13.60;;
39738;SDS011;25422;48.286;8.484;2024-03-02T09:17:06;16.02;;;12.40;;
39738;SDS011;25422;48.286;8.484;2024-03-02T09:19:33;14.93;;;11.93;;
39738;SDS011;25422;48.286;8.484;2024-03-02T09:21:58;14.43;;;11.15;;
39738;SDS011;25422;48.286;8.484;2024-03-02T09:24:24;15.77;;;10.68;;
39738;SDS011;25422;48.286;8.484;2024-03-02T09:26:49;13.32;;;10.52;;
39738;SDS011;25422;48.286;8.484;2024-03-02T09:29:15;17.10;;;11.18;;
39738;SDS011;25422;48.286;8.484;2024-03-02T09:31:40;13.20;;;9.70;;
39738;SDS011;25422;48.286;8.484;2024-03-02T09:34:06;11.65;;;8.88;;
39738;SDS011;25422;48.286;8.484;2024-03-02T09:36:32;9.73;;;7.97;;
39738;SDS011;25422;48.286;8.484;2024-03-02T09:38:58;10.35;;;8.32;;
39738;SDS011;25422;48.286;8.484;2024-03-02T09:41:23;9.52;;;7.68;;
39738;SDS011;25422;48.286;8.484;2024-03-02T09:43:49;10.27;;;8.30;;
39738;SDS011;25422;48.286;8.484;2024-03-02T09:46:15;11.23;;;8.90;;
39738;SDS011;25422;48.286;8.484;2024-03-02T09:48:41;10.35;;;8.25;;
39738;SDS011;25422;48.286;8.484;2024-03-02T09:51:06;10.60;;;7.68;;
39738;SDS011;25422;48.286;8.484;2024-03-02T09:53:33;9.10;;;6.82;;
39738;SDS011;25422;48.286;8.484;2024-03-02T09:55:59;8.45;;;6.72;;
39738;SDS011;25422;48.286;8.484;2024-03-02T09:58:25;8.15;;;6.88;;
39738;SDS011;25422;48.286;8.484;2024-03-02T10:00:51;9.70;;;7.00;;
39738;SDS011;25422;48.286;8.484;2024-03-02T10:03:17;8.73;;;6.28;;
39738;SDS011;25422;48.286;8.484;2024-03-02T10:05:44;7.63;;;6.45;;
39738;SDS011;25422;48.286;8.484;2024-03-02T10:08:09;9.50;;;6.63;;
39738;SDS011;25422;48.286;8.484;2024-03-02T10:10:38;8.23;;;7.00;;
39738;SDS011;25422;48.286;8.484;2024-03-02T10:13:09;11.70;;;7.55;;
39738;SDS011;25422;48.286;8.484;2024-03-02T10:15:35;8.60;;;6.78;;
39738;SDS011;25422;48.286;8.484;2024-03-02T10:18:02;9.52;;;6.05;;
39738;SDS011;25422;48.286;8.484;2024-03-02T10:20:33;8.05;;;6.10;;
39738;SDS011;25422;48.286;8.484;2024-03-02T10:23:12;6.10;;;4.82;;
39738;SDS011;25422;48.286;8.484;2024-03-02T10:25:39;6.47;;;5.28;;
39738;SDS011;25422;48.286;8.484;2024-03-02T10:28:05;6.60;;;5.35;;
39738;SDS011;25422;48.286;8.484;2024-03-02T10:30:31;6.95;;;5.18;;
39738;SDS011;25422;48.286;8.484;2024-03-02T10:32:56;6.63;;;5.22;;
39738;SDS011;25422;48.286;8.484;2024-03-02T10:35:22;8.68;;;5.75;;
39738;SDS011;25422;48.286;8.484;2024-03-02T10:37:51;6.93;;;4.93;;
39738;SDS011;25422;48.286;8.484;2024-03-02T10:40:17;7.00;;;5.18;;
39738;SDS011;25422;48.286;8.484;2024-03-02T10:42:46;6.93;;;5.45;;
39738;SDS011;25422;48.286;8.484;2024-03-02T10:45:14;6.25;;;5.13;;
39738;SDS011;25422;48.286;8.484;2024-03-02T10:47:41;6.85;;;4.70;;
39738;SDS011;25422;48.286;8.484;2024-03-02T10:50:08;6.78;;;5.40;;
39738;SDS011;25422;48.286;8.484;2024-03-02T10:52:34;8.45;;;5.32;;
39738;SDS011;25422;48.286;8.484;2024-03-02T10:55:00;6.57;;;5.53;;
39738;SDS011;25422;48.286;8.484;2024-03-02T10:57:25;3.70;;;3.40;;
39738;SDS011;25422;48.286;8.484;2024-03-02T10:59:57;4.90;;;3.28;;
39738;SDS011;25422;48.286;8.484;2024-03-02T11:02:28;4.78;;;2.80;;
39738;SDS011;25422;48.286;8.484;2024-03-02T11:04:56;5.40;;;2.95;;
39738;SDS011;25422;48.286;8.484;2024-03-02T11:07:25;3.35;;;3.05;;
39738;SDS011;25422;48.286;8.484;2024-03-02T11:09:57;4.03;;;3.20;;
39738;SDS011;25422;48.286;8.484;2024-03-02T11:12:29;3.42;;;3.00;;
39738;SDS011;25422;48.286;8.484;2024-03-02T11:14:58;3.33;;;2.40;;
39738;SDS011;25422;48.286;8.484;2024-03-02T11:17:23;3.00;;;2.70;;
39738;SDS011;25422;48.286;8.484;2024-03-02T11:19:51;2.60;;;2.10;;
39738;SDS011;25422;48.286;8.484;2024-03-02T11:22:17;1.95;;;1.75;;
39738;SDS011;25422;48.286;8.484;2024-03-02T11:24:51;2.72;;;2.10;;
39738;SDS011;25422;48.286;8.484;2024-03-02T11:27:58;1.50;;;1.40;;
39738;SDS011;25422;48.286;8.484;2024-03-02T11:32:59;1.75;;;1.63;;
39738;SDS011;25422;48.286;8.484;2024-03-02T11:35:42;3.53;;;1.88;;
39738;SDS011;25422;48.286;8.484;2024-03-02T11:38:10;1.88;;;1.60;;
39738;SDS011;25422;48.286;8.484;2024-03-02T11:40:36;3.17;;;1.67;;
39738;SDS011;25422;48.286;8.484;2024-03-02T11:43:04;2.25;;;1.40;;
39738;SDS011;25422;48.286;8.484;2024-03-02T11:45:31;3.25;;;1.85;;
39738;SDS011;25422;48.286;8.484;2024-03-02T11:47:58;2.00;;;1.50;;
39738;SDS011;25422;48.286;8.484;2024-03-02T11:50:33;3.15;;;1.70;;
39738;SDS011;25422;48.286;8.484;2024-03-02T11:53:00;2.00;;;1.52;;
39738;SDS011;25422;48.286;8.484;2024-03-02T11:55:26;3.33;;;1.80;;
39738;SDS011;25422;48.286;8.484;2024-03-02T11:57:52;2.22;;;1.60;;
39738;SDS011;25422;48.286;8.484;2024-03-02T12:00:21;1.52;;;1.25;;
39738;SDS011;25422;48.286;8.484;2024-03-02T12:05:35;1.10;;;1.00;;
39738;SDS011;25422;48.286;8.484;2024-03-02T12:08:04;1.60;;;1.35;;
39738;SDS011;25422;48.286;8.484;2024-03-02T12:10:34;1.48;;;1.27;;
39738;SDS011;25422;48.286;8.484;2024-03-02T12:13:02;1.67;;;1.25;;
39738;SDS011;25422;48.286;8.484;2024-03-02T12:15:30;0.95;;;0.80;;
39738;SDS011;25422;48.286;8.484;2024-03-02T12:17:57;1.35;;;1.15;;
39738;SDS011;25422;48.286;8.484;2024-03-02T12:20:25;1.27;;;1.00;;
39738;SDS011;25422;48.286;8.484;2024-03-02T12:22:52;1.90;;;1.52;;
39738;SDS011;25422;48.286;8.484;2024-03-02T12:25:19;3.30;;;2.50;;
39738;SDS011;25422;48.286;8.484;2024-03-02T12:27:52;1.92;;;1.73;;
39738;SDS011;25422;48.286;8.484;2024-03-02T12:30:22;1.83;;;1.35;;
39738;SDS011;25422;48.286;8.484;2024-03-02T12:32:48;2.60;;;1.30;;
39738;SDS011;25422;48.286;8.484;2024-03-02T12:35:14;1.73;;;1.10;;
39738;SDS011;25422;48.286;8.484;2024-03-02T12:37:44;2.60;;;1.40;;
39738;SDS011;25422;48.286;8.484;2024-03-02T12:40:13;3.50;;;2.25;;
39738;SDS011;25422;48.286;8.484;2024-03-02T12:42:40;2.58;;;1.50;;
39738;SDS011;25422;48.286;8.484;2024-03-02T12:45:07;1.60;;;1.40;;
39738;SDS011;25422;48.286;8.484;2024-03-02T12:47:34;2.13;;;1.50;;
39738;SDS011;25422;48.286;8.484;2024-03-02T12:50:00;2.70;;;1.42;;
39738;SDS011;25422;48.286;8.484;2024-03-02T12:52:26;2.00;;;1.58;;
39738;SDS011;25422;48.286;8.484;2024-03-02T12:54:52;1.40;;;1.17;;
39738;SDS011;25422;48.286;8.484;2024-03-02T12:57:20;2.22;;;1.30;;
39738;SDS011;25422;48.286;8.484;2024-03-02T12:59:46;1.30;;;1.20;;
39738;SDS011;25422;48.286;8.484;2024-03-02T13:02:19;1.63;;;1.23;;
39738;SDS011;25422;48.286;8.484;2024-03-02T13:04:52;3.70;;;1.40;;
39738;SDS011;25422;48.286;8.484;2024-03-02T13:07:19;1.60;;;1.25;;
39738;SDS011;25422;48.286;8.484;2024-03-02T13:09:45;1.88;;;1.10;;
39738;SDS011;25422;48.286;8.484;2024-03-02T13:12:11;1.20;;;1.10;;
39738;SDS011;25422;48.286;8.484;2024-03-02T13:14:37;2.92;;;1.30;;
39738;SDS011;25422;48.286;8.484;2024-03-02T13:17:02;1.52;;;1.42;;
39738;SDS011;25422;48.286;8.484;2024-03-02T13:19:30;2.13;;;1.55;;
39738;SDS011;25422;48.286;8.484;2024-03-02T13:21:56;1.92;;;1.50;;
39738;SDS011;25422;48.286;8.484;2024-03-02T13:24:22;1.40;;;1.30;;
39738;SDS011;25422;48.286;8.484;2024-03-02T13:26:50;3.55;;;1.70;;
39738;SDS011;25422;48.286;8.484;2024-03-02T13:29:20;1.77;;;1.50;;
39738;SDS011;25422;48.286;8.484;2024-03-02T13:31:46;2.33;;;1.75;;
39738;SDS011;25422;48.286;8.484;2024-03-02T13:34:12;1.83;;;1.45;;
39738;SDS011;25422;48.286;8.484;2024-03-02T13:36:37;1.85;;;1.50;;
39738;SDS011;25422;48.286;8.484;2024-03-02T13:39:03;2.03;;;1.50;;
39738;SDS011;25422;48.286;8.484;2024-03-02T13:41:31;3.30;;;1.38;;
39738;SDS011;25422;48.286;8.484;2024-03-02T13:43:57;2.10;;;1.33;;
39738;SDS011;25422;48.286;8.484;2024-03-02T13:46:26;2.65;;;1.65;;
39738;SDS011;25422;48.286;8.484;2024-03-02T13:48:51;1.88;;;1.45;;
39738;SDS011;25422;48.286;8.484;2024-03-02T13:51:17;4.18;;;1.40;;
39738;SDS011;25422;48.286;8.484;2024-03-02T13:53:43;1.77;;;1.50;;
39738;SDS011;25422;48.286;8.484;2024-03-02T13:56:08;1.85;;;1.30;;
39738;SDS011;25422;48.286;8.484;2024-03-02T13:58:34;1.58;;;1.23;;
39738;SDS011;25422;48.286;8.484;2024-03-02T14:00:59;1.98;;;1.20;;
39738;SDS011;25422;48.286;8.484;2024-03-02T14:03:26;2.25;;;1.80;;
39738;SDS011;25422;48.286;8.484;2024-03-02T14:05:52;2.25;;;1.50;;
39738;SDS011;25422;48.286;8.484;2024-03-02T14:08:18;3.45;;;1.50;;
39738;SDS011;25422;48.286;8.484;2024-03-02T14:10:44;2.17;;;1.35;;
39738;SDS011;25422;48.286;8.484;2024-03-02T14:13:09;1.75;;;1.58;;
39738;SDS011;25422;48.286;8.484;2024-03-02T14:15:35;1.77;;;1.55;;
39738;SDS011;25422;48.286;8.484;2024-03-02T14:18:05;2.38;;;1.58;;
39738;SDS011;25422;48.286;8.484;2024-03-02T14:20:31;2.60;;;2.08;;
39738;SDS011;25422;48.286;8.484;2024-03-02T14:22:58;2.53;;;1.58;;
39738;SDS011;25422;48.286;8.484;2024-03-02T14:25:24;1.50;;;1.40;;
39738;SDS011;25422;48.286;8.484;2024-03-02T14:27:50;1.58;;;1.40;;
39738;SDS011;25422;48.286;8.484;2024-03-02T14:30:16;1.80;;;1.67;;
39738;SDS011;25422;48.286;8.484;2024-03-02T14:32:42;1.52;;;1.40;;